createdAt,value
2023-01-28T00:00:54.521Z,99.9
2023-01-28T00:04:49.545Z,99.9
2023-01-28T00:14:45.007Z,99.9
2023-01-28T00:15:47.773Z,99.9
2023-01-28T00:17:45.250Z,99.9
2023-01-28T00:19:42.755Z,99.9
2023-01-28T00:21:40.266Z,99.9
2023-01-28T00:23:45.679Z,99.9
2023-01-28T00:25:43.202Z,99.9
2023-01-28T00:27:40.681Z,99.9
2023-01-28T00:31:35.751Z,99.9
2023-01-28T00:33:33.272Z,99.9
2023-01-28T00:37:36.128Z,99.9
2023-01-28T00:39:33.634Z,99.9
2023-01-28T00:41:31.202Z,99.9
2023-01-28T00:43:28.688Z,99.9
2023-01-28T00:45:26.236Z,99.9
2023-01-28T00:47:23.760Z,99.9
2023-01-28T00:49:21.253Z,99.9
2023-01-28T00:51:26.965Z,99.9
2023-01-28T00:53:24.550Z,99.9
2023-01-28T00:55:21.996Z,99.9
2023-01-28T00:57:19.518Z,99.9
2023-01-28T00:59:17.036Z,99.9
2023-01-28T01:01:14.644Z,99.9
2023-01-28T01:05:17.665Z,99.9
2023-01-28T01:07:14.981Z,99.9
2023-01-28T01:10:15.183Z,99.9
2023-01-28T01:18:13.105Z,99.9
2023-01-28T01:24:05.621Z,99.9
2023-01-28T01:26:03.096Z,99.9
2023-01-28T01:28:00.624Z,99.9
2023-01-28T01:29:58.143Z,99.9
2023-01-28T01:32:03.708Z,99.9
2023-01-28T01:34:01.034Z,99.9
2023-01-28T01:35:58.661Z,99.9
2023-01-28T01:37:56.057Z,99.9
2023-01-28T01:39:53.575Z,99.9
2023-01-28T01:45:54.036Z,99.9
2023-01-28T01:51:46.526Z,99.9
2023-01-28T01:53:44.024Z,99.9
2023-01-28T01:57:39.048Z,99.9
2023-01-28T01:59:44.460Z,99.9
2023-01-28T02:01:41.952Z,99.9
2023-01-28T02:03:39.524Z,99.9
2023-01-28T02:04:42.160Z,99.9
2023-01-28T02:08:37.182Z,99.9
2023-01-28T02:14:37.612Z,99.8
2023-01-28T02:16:35.180Z,99.8
2023-01-28T02:20:30.122Z,99.7
2023-01-28T02:24:25.251Z,99.7
2023-01-28T02:28:28.039Z,99.8
2023-01-28T02:30:25.543Z,99.9
2023-01-28T02:32:23.049Z,99.9
2023-01-28T02:34:20.550Z,99.9
2023-01-28T02:36:18.042Z,99.9
2023-01-28T02:38:15.544Z,99.9
2023-01-28T02:40:20.970Z,99.9
2023-01-28T02:42:18.474Z,99.9
2023-01-28T02:44:15.987Z,99.9
2023-01-28T02:46:13.504Z,99.9
2023-01-28T02:50:08.505Z,99.9
2023-01-28T03:00:23.345Z,99.8
2023-01-28T03:04:18.358Z,99.8
2023-01-28T03:06:23.795Z,99.8
2023-01-28T03:08:21.286Z,99.8
2023-01-28T03:10:18.805Z,99.9
2023-01-28T03:12:16.277Z,99.9
2023-01-28T03:14:13.727Z,99.9
2023-01-28T03:18:08.773Z,99.9
2023-01-28T03:20:14.189Z,99.9
2023-01-28T03:22:11.701Z,99.9
2023-01-28T03:24:09.250Z,99.9
2023-01-28T03:28:04.288Z,99.9
2023-01-28T03:31:59.292Z,99.9
2023-01-28T03:34:04.671Z,99.9
2023-01-28T03:37:59.675Z,99.9
2023-01-28T03:39:57.192Z,99.9
2023-01-28T03:41:54.679Z,99.9
2023-01-28T03:43:52.182Z,99.9
2023-01-28T03:45:49.677Z,99.9
2023-01-28T03:47:55.071Z,99.9
2023-01-28T03:51:50.059Z,99.9
2023-01-28T03:52:52.785Z,99.9
2023-01-28T03:56:47.753Z,99.9
2023-01-28T03:58:45.256Z,99.9
2023-01-28T04:02:48.161Z,99.9
2023-01-28T04:04:46.012Z,99.9
2023-01-28T04:06:43.522Z,99.9
2023-01-28T04:08:41.009Z,99.9
2023-01-28T04:10:38.576Z,99.9
2023-01-28T04:12:36.038Z,99.9
2023-01-28T04:14:41.457Z,99.8
2023-01-28T04:16:38.956Z,99.8
2023-01-28T04:18:36.448Z,99.8
2023-01-28T04:20:33.938Z,99.7
2023-01-28T04:30:29.438Z,99.4
2023-01-28T04:32:26.836Z,99.3
2023-01-28T04:34:24.361Z,99.3
2023-01-28T04:44:19.795Z,99.3
2023-01-28T04:46:17.293Z,99.2
2023-01-28T04:47:19.979Z,99.2
2023-01-28T04:49:17.472Z,99.1
2023-01-28T04:51:14.975Z,99.2
2023-01-28T04:55:18.062Z,99.5
2023-01-28T04:57:15.353Z,99.6
2023-01-28T04:59:12.876Z,99.7
2023-01-28T05:03:07.851Z,99.6
2023-01-28T05:05:05.396Z,99.5
2023-01-28T05:07:02.908Z,99.5
2023-01-28T05:11:07.326Z,99.4
2023-01-28T05:13:04.847Z,99.4
2023-01-28T05:15:02.388Z,99.6
2023-01-28T05:16:59.868Z,99.6
2023-01-28T05:18:57.343Z,99.7
2023-01-28T05:20:54.845Z,99.7
2023-01-28T05:23:00.281Z,99.3
2023-01-28T05:24:57.742Z,99
2023-01-28T05:26:55.264Z,98.7
2023-01-28T05:28:52.795Z,98.3
2023-01-28T05:38:48.210Z,97.6
2023-01-28T05:40:45.714Z,97.8
2023-01-28T05:41:48.440Z,98
2023-01-28T05:43:45.963Z,98.3
2023-01-28T05:45:43.492Z,98.5
2023-01-28T05:47:40.941Z,98.5
2023-01-28T05:49:46.350Z,98.4
2023-01-28T05:51:43.856Z,98.2
2023-01-28T05:53:41.352Z,98
2023-01-28T05:57:36.355Z,97.8
2023-01-28T05:59:33.854Z,97.9
2023-01-28T06:09:29.288Z,97.7
2023-01-28T06:11:26.810Z,97.8
2023-01-28T06:13:24.273Z,97.8
2023-01-28T06:15:21.790Z,97.7
2023-01-28T06:17:27.203Z,98
2023-01-28T06:19:24.709Z,98.1
2023-01-28T06:21:22.231Z,98.1
2023-01-28T06:23:19.738Z,98.2
2023-01-28T06:25:17.232Z,98.3
2023-01-28T06:27:14.750Z,98.2
2023-01-28T06:29:12.253Z,98.1
2023-01-28T06:31:17.641Z,97.9
2023-01-28T06:33:15.175Z,97.9
2023-01-28T06:35:12.660Z,98.1
2023-01-28T06:37:29.954Z,98
2023-01-28T06:39:27.475Z,98.1
2023-01-28T06:41:24.979Z,98.1
2023-01-28T06:43:30.382Z,98
2023-01-28T06:45:27.898Z,97.9
2023-01-28T06:47:25.417Z,98
2023-01-28T06:49:22.891Z,98
2023-01-28T06:55:15.462Z,98.2
2023-01-28T06:57:20.807Z,98.3
2023-01-28T06:59:18.318Z,98.3
2023-01-28T07:03:13.383Z,98.3
2023-01-28T07:05:10.833Z,98.1
2023-01-28T07:07:08.333Z,98.2
2023-01-28T07:09:05.855Z,98.1
2023-01-28T07:11:11.251Z,98.1
2023-01-28T07:13:08.811Z,98.1
2023-01-28T07:15:06.254Z,98.2
2023-01-28T07:17:03.835Z,98.3
2023-01-28T07:20:58.781Z,98.4
2023-01-28T07:22:56.261Z,98.5
2023-01-28T07:25:01.687Z,98.5
2023-01-28T07:26:59.171Z,98.4
2023-01-28T07:28:56.709Z,98.5
2023-01-28T07:29:59.393Z,98.5
2023-01-28T07:31:57.014Z,98.4
2023-01-28T07:33:54.384Z,98.4
2023-01-28T07:37:57.319Z,98.4
2023-01-28T07:39:54.807Z,98.3
2023-01-28T07:41:52.304Z,98.5
2023-01-28T07:43:49.802Z,98.7
2023-01-28T07:45:48.623Z,98.8
2023-01-28T07:47:44.793Z,98.9
2023-01-28T07:49:42.319Z,98.9
2023-01-28T07:51:47.736Z,99
2023-01-28T07:53:45.259Z,99
2023-01-28T07:55:42.721Z,99
2023-01-28T07:57:40.253Z,99
2023-01-28T07:59:37.730Z,99
2023-01-28T08:01:35.316Z,99.1
2023-01-28T08:03:32.774Z,99.1
2023-01-28T08:07:35.670Z,98.9
2023-01-28T08:09:33.171Z,98.9
2023-01-28T08:11:30.690Z,98.8
2023-01-28T08:13:28.195Z,98.8
2023-01-28T08:15:25.745Z,98.7
2023-01-28T08:17:23.212Z,98.7
2023-01-28T08:23:24.514Z,98.7
2023-01-28T08:24:26.430Z,98.8
2023-01-28T08:26:23.821Z,98.9
2023-01-28T08:28:21.314Z,98.9
2023-01-28T08:30:18.827Z,98.9
2023-01-28T08:32:24.265Z,99
2023-01-28T08:34:21.783Z,99
2023-01-28T08:38:16.779Z,99.1
2023-01-28T08:40:14.517Z,99.1
2023-01-28T08:44:09.311Z,98.9
2023-01-28T08:46:14.770Z,98.9
2023-01-28T08:50:09.740Z,99.2
2023-01-28T08:52:07.270Z,99.4
2023-01-28T08:54:04.788Z,99.6
2023-01-28T08:56:02.271Z,99.7
2023-01-28T08:57:59.760Z,99.8
2023-01-28T09:00:05.117Z,99.8
2023-01-28T09:02:02.641Z,99.7
2023-01-28T09:04:00.173Z,99.6
2023-01-28T09:05:57.595Z,99.5
2023-01-28T09:07:55.109Z,99.4
2023-01-28T09:09:52.603Z,99.3
2023-01-28T09:11:50.138Z,99.2
2023-01-28T09:13:55.504Z,99.1
2023-01-28T09:15:53.074Z,99
2023-01-28T09:17:50.536Z,99.1
2023-01-28T09:18:53.227Z,99.1
2023-01-28T09:24:45.762Z,99.2
2023-01-28T09:28:48.692Z,99
2023-01-28T09:32:43.730Z,99
2023-01-28T09:34:41.253Z,98.8
2023-01-28T09:36:38.728Z,98.8
2023-01-28T09:46:34.236Z,98.4
2023-01-28T09:50:29.187Z,98.1
2023-01-28T09:52:26.710Z,98.1
2023-01-28T09:56:29.629Z,98
2023-01-28T09:58:27.151Z,98
2023-01-28T10:00:24.669Z,98
2023-01-28T10:02:22.215Z,97.9
2023-01-28T10:04:19.736Z,97.9
2023-01-28T10:06:17.266Z,97.9
2023-01-28T10:10:20.204Z,98
2023-01-28T10:12:17.715Z,98.2
2023-01-28T10:14:44.575Z,97.9
2023-01-28T10:16:42.077Z,97.9
2023-01-28T10:22:42.556Z,97.3
2023-01-28T10:28:35.153Z,97
2023-01-28T10:30:32.655Z,96.9
2023-01-28T10:32:30.196Z,96.6
2023-01-28T10:34:35.579Z,96
2023-01-28T10:36:33.106Z,95.8
2023-01-28T10:38:30.655Z,95.9
2023-01-28T10:40:28.182Z,95.9
2023-01-28T10:42:25.726Z,96
2023-01-28T10:44:23.263Z,96
2023-01-28T10:46:20.923Z,95.9
2023-01-28T10:48:27.784Z,95.9
2023-01-28T10:50:25.252Z,95.7
2023-01-28T10:52:22.783Z,95.5
2023-01-28T10:56:17.870Z,95.5
2023-01-28T10:58:15.414Z,95.3
2023-01-28T11:00:13.131Z,95
2023-01-28T11:02:18.425Z,94.7
2023-01-28T11:04:15.896Z,94.5
2023-01-28T11:06:13.427Z,94.3
2023-01-28T11:07:16.173Z,94.1
2023-01-28T11:09:13.715Z,93.8
2023-01-28T11:11:11.253Z,93.5
2023-01-28T11:15:14.496Z,92.6
2023-01-28T11:19:09.289Z,92.5
2023-01-28T11:21:06.821Z,92.5
2023-01-28T11:23:04.350Z,92.6
2023-01-28T11:25:01.884Z,92.5
2023-01-28T11:27:00.114Z,92.2
2023-01-28T11:29:04.879Z,91.2
2023-01-28T11:34:57.480Z,89.1
2023-01-28T11:36:55.045Z,75.7
2023-01-28T11:38:52.585Z,69
2023-01-28T11:40:50.129Z,63.5
2023-01-28T11:42:55.585Z,60.9
2023-01-28T11:44:53.239Z,58.5
2023-01-28T11:46:50.763Z,58.1
2023-01-28T11:48:48.305Z,56.9
2023-01-28T11:50:45.897Z,56.3
2023-01-28T11:53:04.947Z,55.6
2023-01-28T11:54:41.036Z,54.7
2023-01-28T11:56:46.562Z,54.1
2023-01-28T11:58:44.087Z,53.6
2023-01-28T12:01:44.412Z,52.9
2023-01-28T12:03:41.973Z,52.5
2023-01-28T12:05:39.578Z,51.2
2023-01-28T12:07:37.156Z,51.1
2023-01-28T12:09:42.644Z,50.4
2023-01-28T12:11:40.231Z,50.2
2023-01-28T12:13:37.843Z,49.8
2023-01-28T12:15:35.484Z,48.7
2023-01-28T12:17:33.021Z,47.4
2023-01-28T12:19:30.640Z,46.7
2023-01-28T12:21:28.227Z,46.2
2023-01-28T12:23:33.800Z,45.3
2023-01-28T12:25:31.350Z,45.1
2023-01-28T12:35:19.338Z,41.8
2023-01-28T12:37:24.841Z,40.9
2023-01-28T12:41:20.053Z,40
2023-01-28T12:43:17.635Z,39.9
2023-01-28T12:45:15.258Z,39.3
2023-01-28T12:47:12.840Z,39.1
2023-01-28T12:49:10.454Z,39
2023-01-28T12:51:15.949Z,39
2023-01-28T12:55:11.169Z,38.9
2023-01-28T12:56:13.917Z,38.6
2023-01-28T12:58:11.499Z,38.2
2023-01-28T13:00:09.201Z,37.9
2023-01-28T13:02:06.818Z,37.6
2023-01-28T13:04:12.186Z,36.7
2023-01-28T13:06:09.782Z,36.4
2023-01-28T13:08:07.376Z,36.2
2023-01-28T13:10:05.013Z,35.8
2023-01-28T13:12:02.558Z,35.6
2023-01-28T13:14:00.303Z,38.3
2023-01-28T13:15:57.759Z,46.7
2023-01-28T13:18:03.238Z,48.9
2023-01-28T13:23:56.093Z,52
2023-01-28T13:27:51.253Z,52.9
2023-01-28T13:29:48.866Z,53.4
2023-01-28T13:31:54.424Z,54.3
2023-01-28T13:37:47.222Z,55.6
2023-01-28T13:39:44.862Z,56.1
2023-01-28T13:45:45.556Z,57.8
2023-01-28T13:52:07.625Z,58.7
2023-01-28T13:54:05.248Z,58.7
2023-01-28T13:58:08.329Z,59.8
2023-01-28T14:00:05.954Z,60.7
2023-01-28T14:02:03.514Z,60.9
2023-01-28T14:04:01.124Z,60.7
2023-01-28T14:05:58.747Z,60.9
2023-01-28T14:09:54.010Z,61.3
2023-01-28T14:13:56.986Z,62.2
2023-01-28T14:15:54.706Z,62.3
2023-01-28T14:21:47.344Z,62
2023-01-28T14:23:44.886Z,61.7
2023-01-28T14:27:47.977Z,61.3
2023-01-28T14:29:45.536Z,61.2
2023-01-28T14:31:43.364Z,61.3
2023-01-28T14:33:40.753Z,61.6
2023-01-28T14:35:38.353Z,61.9
2023-01-28T14:37:35.947Z,62
2023-01-28T14:39:41.418Z,62.5
2023-01-28T14:41:38.974Z,62.4
2023-01-28T14:43:36.540Z,62.4
2023-01-28T14:44:39.301Z,62.4
2023-01-28T14:46:36.919Z,62.5
2023-01-28T14:48:34.477Z,62.6
2023-01-28T14:50:32.019Z,62.7
2023-01-28T14:52:37.486Z,63
2023-01-28T14:54:35.085Z,63.1
2023-01-28T14:56:33.879Z,63.2
2023-01-28T14:58:30.223Z,63.3
2023-01-28T15:00:27.789Z,63.3
2023-01-28T15:02:25.415Z,63.4
2023-01-28T15:04:22.931Z,63.6
2023-01-28T15:08:25.937Z,64
2023-01-28T15:14:18.679Z,64.8
2023-01-28T15:16:16.248Z,64.9
2023-01-28T15:20:19.265Z,65.8
2023-01-28T15:22:16.814Z,65.9
2023-01-28T15:28:09.495Z,66.1
2023-01-28T15:30:07.271Z,66
2023-01-28T15:32:04.639Z,66
2023-01-28T15:36:07.651Z,66.6
2023-01-28T15:38:05.622Z,66.7
2023-01-28T15:41:05.576Z,67.2
2023-01-28T15:43:03.071Z,67.4
2023-01-28T15:45:00.713Z,67.6
2023-01-28T15:47:06.114Z,67.9
2023-01-28T15:49:03.730Z,68.1
2023-01-28T15:52:58.817Z,68.2
2023-01-28T15:54:56.395Z,68.2
2023-01-28T15:56:53.953Z,68.4
2023-01-28T15:58:51.532Z,68.4
2023-01-28T16:00:57.079Z,68.6
2023-01-28T16:02:54.636Z,68.8
2023-01-28T16:04:52.149Z,69
2023-01-28T16:06:49.710Z,69
2023-01-28T16:08:47.277Z,69.1
2023-01-28T16:10:44.836Z,69.1
2023-01-28T16:12:42.408Z,69.2
2023-01-28T16:14:47.827Z,69.4
2023-01-28T16:16:45.368Z,69.5
2023-01-28T16:18:42.962Z,69.6
2023-01-28T16:20:40.483Z,69.8
2023-01-28T16:22:38.074Z,69.9
2023-01-28T16:24:35.731Z,70.2
2023-01-28T16:26:33.190Z,70.6
2023-01-28T16:28:38.686Z,71.1
2023-01-28T16:32:35.261Z,71
2023-01-28T16:33:38.019Z,71
2023-01-28T16:36:01.775Z,71
2023-01-28T16:39:30.673Z,71.4
2023-01-28T16:41:36.166Z,72.1
2023-01-28T16:45:31.241Z,72.4
2023-01-28T16:47:28.844Z,72.5
2023-01-28T16:49:26.383Z,72.6
2023-01-28T16:51:23.930Z,72.7
2023-01-28T16:53:21.524Z,72.8
2023-01-28T16:55:27.335Z,73.1
2023-01-28T16:57:24.901Z,73.3
2023-01-28T16:59:22.442Z,73.4
2023-01-28T17:01:19.973Z,73.5
2023-01-28T17:05:15.494Z,73.6
2023-01-28T17:09:18.056Z,74.1
2023-01-28T17:19:05.856Z,75.1
2023-01-28T17:23:08.849Z,75.5
2023-01-28T17:25:06.387Z,75.5
2023-01-28T17:27:03.975Z,75.4
2023-01-28T17:37:29.131Z,75.1
2023-01-28T17:41:24.267Z,75.3
2023-01-28T17:45:19.381Z,75.3
2023-01-28T17:47:16.925Z,75.4
2023-01-28T17:49:22.508Z,75.5
2023-01-28T17:51:19.937Z,75.6
2023-01-28T17:55:15.436Z,75.9
2023-01-28T17:57:12.560Z,76
2023-01-28T17:59:10.120Z,76.1
2023-01-28T18:01:07.700Z,76.4
2023-01-28T18:03:13.146Z,76.6
2023-01-28T18:05:10.718Z,76.8
2023-01-28T18:07:08.235Z,76.9
2023-01-28T18:09:05.771Z,77.1
2023-01-28T18:13:00.866Z,77.3
2023-01-28T18:14:58.451Z,77.4
2023-01-28T18:17:03.865Z,77.6
2023-01-28T18:19:01.457Z,77.7
2023-01-28T18:20:58.986Z,77.8
2023-01-28T18:22:01.715Z,77.8
2023-01-28T18:23:59.229Z,77.8
2023-01-28T18:25:56.787Z,78
2023-01-28T18:29:59.772Z,78.1
2023-01-28T18:33:54.884Z,78.1
2023-01-28T18:37:49.971Z,78.1
2023-01-28T18:39:47.477Z,78.1
2023-01-28T18:41:45.034Z,78.1
2023-01-28T18:43:50.479Z,78.1
2023-01-28T18:45:48.132Z,78.2
2023-01-28T18:47:45.573Z,78.3
2023-01-28T18:49:43.144Z,78.3
2023-01-28T18:51:40.626Z,78.5
2023-01-28T18:53:38.168Z,78.7
2023-01-28T18:55:35.772Z,78.9
2023-01-28T18:57:41.147Z,79.4
2023-01-28T18:59:38.699Z,79.7
2023-01-28T19:01:36.308Z,79.8
2023-01-28T19:03:33.797Z,79.9
2023-01-28T19:05:31.342Z,80.1
2023-01-28T19:09:26.422Z,80.3
2023-01-28T19:11:31.865Z,80.6
2023-01-28T19:20:24.720Z,81.5
2023-01-28T19:24:27.795Z,81.7
2023-01-28T19:26:25.372Z,81.8
2023-01-28T19:28:22.742Z,81.9
2023-01-28T19:30:20.294Z,82
2023-01-28T19:32:17.825Z,82
2023-01-28T19:34:15.354Z,82.1
2023-01-28T19:36:12.889Z,82.2
2023-01-28T19:38:18.309Z,82.4
2023-01-28T19:40:15.862Z,82.6
2023-01-28T19:42:13.400Z,82.7
2023-01-28T19:44:10.922Z,82.8
2023-01-28T19:48:05.991Z,83
2023-01-28T19:50:03.507Z,83.1
2023-01-28T19:52:08.970Z,83.5
2023-01-28T19:54:06.563Z,83.7
2023-01-28T19:58:01.611Z,84
2023-01-28T19:59:59.113Z,84.2
2023-01-28T20:01:56.795Z,84.2
2023-01-28T20:03:54.223Z,84.4
2023-01-28T20:07:57.162Z,84.8
2023-01-28T20:09:54.708Z,84.9
2023-01-28T20:12:54.944Z,85.3
2023-01-28T20:18:55.470Z,86
2023-01-28T20:24:48.116Z,86.4
2023-01-28T20:26:45.609Z,86.5
2023-01-28T20:28:43.189Z,86.6
2023-01-28T20:30:40.773Z,86.6
2023-01-28T20:32:46.157Z,87
2023-01-28T20:34:43.664Z,87.1
2023-01-28T20:36:41.200Z,87.2
2023-01-28T20:38:38.732Z,87.3
2023-01-28T20:46:36.927Z,88.1
2023-01-28T20:50:31.819Z,88.2
2023-01-28T20:52:29.352Z,88.4
2023-01-28T20:54:26.885Z,88.6
2023-01-28T20:56:24.415Z,88.7
2023-01-28T20:58:22.143Z,88.9
2023-01-28T21:02:24.950Z,89.4
2023-01-28T21:04:22.456Z,89.5
2023-01-28T21:06:45.596Z,89.4
2023-01-28T21:08:43.137Z,89.5
2023-01-28T21:10:40.732Z,89.5
2023-01-28T21:12:46.104Z,89.7
2023-01-28T21:14:43.659Z,89.8
2023-01-28T21:16:41.253Z,90.2
2023-01-28T21:18:38.704Z,90.2
2023-01-28T21:20:36.268Z,90.3
2023-01-28T21:22:33.766Z,90.4
2023-01-28T21:24:31.328Z,90.4
2023-01-28T21:26:36.734Z,90.5
2023-01-28T21:28:34.263Z,90.6
2023-01-28T21:30:31.811Z,90.7
2023-01-28T21:40:27.327Z,90.9
2023-01-28T21:42:24.861Z,91
2023-01-28T21:48:17.519Z,91.2
2023-01-28T21:50:15.230Z,91.2
2023-01-28T21:52:12.554Z,91.2
2023-01-28T21:54:17.979Z,91.2
2023-01-28T21:56:15.510Z,91.3
2023-01-28T21:58:13.036Z,91.3
2023-01-28T22:03:10.926Z,91.4
2023-01-28T22:09:11.303Z,91.6
2023-01-28T22:13:07.869Z,91.7
2023-01-28T22:17:02.991Z,91.8
2023-01-28T22:21:05.868Z,92.1
2023-01-28T22:23:03.375Z,92.2
2023-01-28T22:25:00.948Z,92.3
2023-01-28T22:26:58.477Z,92.4
2023-01-28T22:28:56.028Z,92.5
2023-01-28T22:30:53.658Z,92.6
2023-01-28T22:32:51.065Z,92.6
2023-01-28T22:34:56.483Z,92.9
2023-01-28T22:36:53.975Z,93
2023-01-28T22:38:51.486Z,93
2023-01-28T22:42:46.572Z,93.2
2023-01-28T22:44:44.114Z,93.2
2023-01-28T22:46:41.729Z,93.3
2023-01-28T22:48:47.086Z,93.5
2023-01-28T22:52:42.209Z,93.6
2023-01-28T22:53:44.855Z,93.7
2023-01-28T22:55:42.388Z,93.8
2023-01-28T22:57:39.918Z,93.8
2023-01-28T22:59:38.171Z,93.9
2023-01-28T23:01:42.950Z,94
2023-01-28T23:03:40.404Z,94
2023-01-28T23:07:35.446Z,94.1
2023-01-28T23:09:32.947Z,94.1
2023-01-28T23:11:30.508Z,94.2
2023-01-28T23:15:33.410Z,94.4
2023-01-28T23:17:31.070Z,94.5
2023-01-28T23:23:23.541Z,94.6
2023-01-28T23:25:21.058Z,94.6
2023-01-28T23:27:18.589Z,94.6
2023-01-28T23:29:24.033Z,94.8
2023-01-28T23:31:21.647Z,94.8
2023-01-28T23:33:19.084Z,94.9
2023-01-28T23:35:16.622Z,94.9
2023-01-28T23:37:14.145Z,95
2023-01-28T23:39:11.685Z,95
2023-01-28T23:41:09.196Z,95
2023-01-28T23:43:14.613Z,95.2
2023-01-28T23:45:12.112Z,95.2
2023-01-28T23:47:09.715Z,95.3
2023-01-28T23:48:12.373Z,95.4
2023-01-28T23:50:12.399Z,95.5
2023-01-28T23:52:07.436Z,95.6
2023-01-28T23:54:04.977Z,95.6
2023-01-28T23:56:10.385Z,95.8
2023-01-28T23:58:07.934Z,95.8
